sensor_id;sensor_type;location;lat;lon;timestamp;P1;P2;P0
55754;PMS5003;41674;52.290;-1.474;2023-08-06T00:01:13;8;6;
55754;PMS5003;41674;52.290;-1.474;2023-08-06T00:03:43;6;6;
55754;PMS5003;41674;52.290;-1.474;2023-08-06T00:06:12;7;4;
55754;PMS5003;41674;52.290;-1.474;2023-08-06T00:08:42;5;4;
55754;PMS5003;41674;52.290;-1.474;2023-08-06T00:11:17;8;6;
55754;PMS5003;41674;52.290;-1.474;2023-08-06T00:13:41;8;8;
55754;PMS5003;41674;52.290;-1.474;2023-08-06T00:16:11;6;5;
55754;PMS5003;41674;52.290;-1.474;2023-08-06T00:18:40;6;6;
55754;PMS5003;41674;52.290;-1.474;2023-08-06T00:21:10;4;4;
55754;PMS5003;41674;52.290;-1.474;2023-08-06T00:23:40;8;6;
55754;PMS5003;41674;52.290;-1.474;2023-08-06T00:26:09;6;4;
55754;PMS5003;41674;52.290;-1.474;2023-08-06T00:28:39;7;7;
55754;PMS5003;41674;52.290;-1.474;2023-08-06T00:31:08;5;5;
55754;PMS5003;41674;52.290;-1.474;2023-08-06T00:33:38;4;4;
55754;PMS5003;41674;52.290;-1.474;2023-08-06T00:36:08;6;6;
55754;PMS5003;41674;52.290;-1.474;2023-08-06T00:38:37;5;5;
55754;PMS5003;41674;52.290;-1.474;2023-08-06T00:41:07;4;4;
55754;PMS5003;41674;52.290;-1.474;2023-08-06T00:43:36;6;4;
55754;PMS5003;41674;52.290;-1.474;2023-08-06T00:46:05;5;5;
55754;PMS5003;41674;52.290;-1.474;2023-08-06T00:48:35;7;7;
55754;PMS5003;41674;52.290;-1.474;2023-08-06T00:51:05;6;6;
55754;PMS5003;41674;52.290;-1.474;2023-08-06T00:53:34;7;6;
55754;PMS5003;41674;52.290;-1.474;2023-08-06T00:56:04;4;4;
55754;PMS5003;41674;52.290;-1.474;2023-08-06T00:58:34;6;6;
55754;PMS5003;41674;52.290;-1.474;2023-08-06T01:01:03;6;6;
55754;PMS5003;41674;52.290;-1.474;2023-08-06T01:03:33;9;6;
55754;PMS5003;41674;52.290;-1.474;2023-08-06T01:06:02;6;6;
55754;PMS5003;41674;52.290;-1.474;2023-08-06T01:08:34;8;8;
55754;PMS5003;41674;52.290;-1.474;2023-08-06T01:11:05;7;7;
55754;PMS5003;41674;52.290;-1.474;2023-08-06T01:13:32;8;7;
55754;PMS5003;41674;52.290;-1.474;2023-08-06T01:16:00;6;6;
55754;PMS5003;41674;52.290;-1.474;2023-08-06T01:18:30;5;4;
55754;PMS5003;41674;52.290;-1.474;2023-08-06T01:21:00;4;4;
55754;PMS5003;41674;52.290;-1.474;2023-08-06T01:23:29;5;5;
55754;PMS5003;41674;52.290;-1.474;2023-08-06T01:26:02;6;6;
55754;PMS5003;41674;52.290;-1.474;2023-08-06T01:28:31;6;6;
55754;PMS5003;41674;52.290;-1.474;2023-08-06T01:30:59;7;6;
55754;PMS5003;41674;52.290;-1.474;2023-08-06T01:33:28;6;6;
55754;PMS5003;41674;52.290;-1.474;2023-08-06T01:35:57;8;5;
55754;PMS5003;41674;52.290;-1.474;2023-08-06T01:38:27;7;6;
55754;PMS5003;41674;52.290;-1.474;2023-08-06T01:40:56;7;7;
55754;PMS5003;41674;52.290;-1.474;2023-08-06T01:43:26;6;6;
55754;PMS5003;41674;52.290;-1.474;2023-08-06T01:45:56;9;8;
55754;PMS5003;41674;52.290;-1.474;2023-08-06T01:48:25;7;7;
55754;PMS5003;41674;52.290;-1.474;2023-08-06T01:50:55;7;6;
55754;PMS5003;41674;52.290;-1.474;2023-08-06T01:53:24;5;5;
55754;PMS5003;41674;52.290;-1.474;2023-08-06T01:55:54;8;7;
55754;PMS5003;41674;52.290;-1.474;2023-08-06T01:58:23;7;6;
55754;PMS5003;41674;52.290;-1.474;2023-08-06T02:00:53;6;6;
55754;PMS5003;41674;52.290;-1.474;2023-08-06T02:03:22;6;6;
55754;PMS5003;41674;52.290;-1.474;2023-08-06T02:05:52;6;5;
55754;PMS5003;41674;52.290;-1.474;2023-08-06T02:08:21;7;6;
55754;PMS5003;41674;52.290;-1.474;2023-08-06T02:10:51;6;6;
55754;PMS5003;41674;52.290;-1.474;2023-08-06T02:13:20;10;7;
55754;PMS5003;41674;52.290;-1.474;2023-08-06T02:15:50;6;5;
55754;PMS5003;41674;52.290;-1.474;2023-08-06T02:18:20;7;7;
55754;PMS5003;41674;52.290;-1.474;2023-08-06T02:23:19;6;5;
55754;PMS5003;41674;52.290;-1.474;2023-08-06T02:25:53;7;6;
55754;PMS5003;41674;52.290;-1.474;2023-08-06T02:28:18;7;6;
55754;PMS5003;41674;52.290;-1.474;2023-08-06T02:30:49;7;5;
55754;PMS5003;41674;52.290;-1.474;2023-08-06T02:33:17;7;5;
55754;PMS5003;41674;52.290;-1.474;2023-08-06T02:35:47;9;6;
55754;PMS5003;41674;52.290;-1.474;2023-08-06T02:38:16;11;8;
55754;PMS5003;41674;52.290;-1.474;2023-08-06T02:40:46;7;5;
55754;PMS5003;41674;52.290;-1.474;2023-08-06T02:43:16;6;5;
55754;PMS5003;41674;52.290;-1.474;2023-08-06T02:45:45;9;8;
55754;PMS5003;41674;52.290;-1.474;2023-08-06T02:48:15;7;7;
55754;PMS5003;41674;52.290;-1.474;2023-08-06T02:50:45;6;6;
55754;PMS5003;41674;52.290;-1.474;2023-08-06T02:53:14;5;5;
55754;PMS5003;41674;52.290;-1.474;2023-08-06T02:55:45;9;8;
55754;PMS5003;41674;52.290;-1.474;2023-08-06T02:58:13;7;6;
55754;PMS5003;41674;52.290;-1.474;2023-08-06T03:00:42;8;7;
55754;PMS5003;41674;52.290;-1.474;2023-08-06T03:03:13;8;6;
55754;PMS5003;41674;52.290;-1.474;2023-08-06T03:05:49;8;6;
55754;PMS5003;41674;52.290;-1.474;2023-08-06T03:08:11;6;6;
55754;PMS5003;41674;52.290;-1.474;2023-08-06T03:10:41;9;8;
55754;PMS5003;41674;52.290;-1.474;2023-08-06T03:13:11;8;8;
55754;PMS5003;41674;52.290;-1.474;2023-08-06T03:15:40;7;6;
55754;PMS5003;41674;52.290;-1.474;2023-08-06T03:18:10;4;4;
55754;PMS5003;41674;52.290;-1.474;2023-08-06T03:20:39;6;6;
55754;PMS5003;41674;52.290;-1.474;2023-08-06T03:23:09;6;6;
55754;PMS5003;41674;52.290;-1.474;2023-08-06T03:25:39;4;4;
55754;PMS5003;41674;52.290;-1.474;2023-08-06T03:28:09;7;7;
55754;PMS5003;41674;52.290;-1.474;2023-08-06T03:30:38;8;7;
55754;PMS5003;41674;52.290;-1.474;2023-08-06T03:33:07;5;5;
55754;PMS5003;41674;52.290;-1.474;2023-08-06T03:35:37;5;5;
55754;PMS5003;41674;52.290;-1.474;2023-08-06T03:38:06;5;5;
55754;PMS5003;41674;52.290;-1.474;2023-08-06T03:40:36;7;5;
55754;PMS5003;41674;52.290;-1.474;2023-08-06T03:43:06;4;4;
55754;PMS5003;41674;52.290;-1.474;2023-08-06T03:45:35;6;5;
55754;PMS5003;41674;52.290;-1.474;2023-08-06T03:48:05;5;5;
55754;PMS5003;41674;52.290;-1.474;2023-08-06T03:50:35;8;6;
55754;PMS5003;41674;52.290;-1.474;2023-08-06T03:53:04;8;6;
55754;PMS5003;41674;52.290;-1.474;2023-08-06T03:55:34;5;5;
55754;PMS5003;41674;52.290;-1.474;2023-08-06T03:58:04;5;4;
55754;PMS5003;41674;52.290;-1.474;2023-08-06T04:00:33;4;3;
55754;PMS5003;41674;52.290;-1.474;2023-08-06T04:03:03;7;5;
55754;PMS5003;41674;52.290;-1.474;2023-08-06T04:05:32;5;4;
55754;PMS5003;41674;52.290;-1.474;2023-08-06T04:08:02;6;5;
55754;PMS5003;41674;52.290;-1.474;2023-08-06T04:10:31;7;7;
55754;PMS5003;41674;52.290;-1.474;2023-08-06T04:13:01;7;6;
55754;PMS5003;41674;52.290;-1.474;2023-08-06T04:15:33;5;4;
55754;PMS5003;41674;52.290;-1.474;2023-08-06T04:18:00;6;6;
55754;PMS5003;41674;52.290;-1.474;2023-08-06T04:20:30;5;5;
55754;PMS5003;41674;52.290;-1.474;2023-08-06T04:23:05;4;4;
55754;PMS5003;41674;52.290;-1.474;2023-08-06T04:25:29;4;4;
55754;PMS5003;41674;52.290;-1.474;2023-08-06T04:27:59;3;3;
55754;PMS5003;41674;52.290;-1.474;2023-08-06T04:30:28;5;3;
55754;PMS5003;41674;52.290;-1.474;2023-08-06T04:32:58;6;6;
55754;PMS5003;41674;52.290;-1.474;2023-08-06T04:35:27;5;5;
55754;PMS5003;41674;52.290;-1.474;2023-08-06T04:37:57;2;2;
55754;PMS5003;41674;52.290;-1.474;2023-08-06T04:40:27;4;3;
55754;PMS5003;41674;52.290;-1.474;2023-08-06T04:42:56;7;5;
55754;PMS5003;41674;52.290;-1.474;2023-08-06T04:45:25;3;3;
55754;PMS5003;41674;52.290;-1.474;2023-08-06T04:47:55;4;3;
55754;PMS5003;41674;52.290;-1.474;2023-08-06T04:50:25;5;5;
55754;PMS5003;41674;52.290;-1.474;2023-08-06T04:52:54;5;4;
55754;PMS5003;41674;52.290;-1.474;2023-08-06T04:55:24;5;5;
55754;PMS5003;41674;52.290;-1.474;2023-08-06T04:57:53;5;5;
55754;PMS5003;41674;52.290;-1.474;2023-08-06T05:00:23;6;5;
55754;PMS5003;41674;52.290;-1.474;2023-08-06T05:02:53;4;3;
55754;PMS5003;41674;52.290;-1.474;2023-08-06T05:05:22;3;3;
55754;PMS5003;41674;52.290;-1.474;2023-08-06T05:07:53;7;5;
55754;PMS5003;41674;52.290;-1.474;2023-08-06T05:10:24;6;6;
55754;PMS5003;41674;52.290;-1.474;2023-08-06T05:12:51;4;4;
55754;PMS5003;41674;52.290;-1.474;2023-08-06T05:15:21;5;5;
55754;PMS5003;41674;52.290;-1.474;2023-08-06T05:17:51;5;5;
55754;PMS5003;41674;52.290;-1.474;2023-08-06T05:20:20;6;6;
55754;PMS5003;41674;52.290;-1.474;2023-08-06T05:22:50;3;2;
55754;PMS5003;41674;52.290;-1.474;2023-08-06T05:25:19;5;5;
55754;PMS5003;41674;52.290;-1.474;2023-08-06T05:27:49;5;4;
55754;PMS5003;41674;52.290;-1.474;2023-08-06T05:30:18;4;3;
55754;PMS5003;41674;52.290;-1.474;2023-08-06T05:32:48;4;3;
55754;PMS5003;41674;52.290;-1.474;2023-08-06T05:35:17;3;3;
55754;PMS5003;41674;52.290;-1.474;2023-08-06T05:37:47;4;2;
55754;PMS5003;41674;52.290;-1.474;2023-08-06T05:40:17;5;5;
55754;PMS5003;41674;52.290;-1.474;2023-08-06T05:42:47;5;4;
55754;PMS5003;41674;52.290;-1.474;2023-08-06T05:45:16;5;5;
55754;PMS5003;41674;52.290;-1.474;2023-08-06T05:47:47;4;4;
55754;PMS5003;41674;52.290;-1.474;2023-08-06T05:50:15;4;4;
55754;PMS5003;41674;52.290;-1.474;2023-08-06T05:52:45;3;2;
55754;PMS5003;41674;52.290;-1.474;2023-08-06T05:55:14;3;3;
55754;PMS5003;41674;52.290;-1.474;2023-08-06T05:57:44;5;5;
55754;PMS5003;41674;52.290;-1.474;2023-08-06T06:00:14;2;2;
55754;PMS5003;41674;52.290;-1.474;2023-08-06T06:02:43;4;3;
55754;PMS5003;41674;52.290;-1.474;2023-08-06T06:05:13;2;2;
55754;PMS5003;41674;52.290;-1.474;2023-08-06T06:07:42;6;4;
55754;PMS5003;41674;52.290;-1.474;2023-08-06T06:10:12;5;5;
55754;PMS5003;41674;52.290;-1.474;2023-08-06T06:12:41;4;4;
55754;PMS5003;41674;52.290;-1.474;2023-08-06T06:15:11;7;5;
55754;PMS5003;41674;52.290;-1.474;2023-08-06T06:17:41;8;5;
55754;PMS5003;41674;52.290;-1.474;2023-08-06T06:20:10;3;3;
55754;PMS5003;41674;52.290;-1.474;2023-08-06T06:22:40;5;4;
55754;PMS5003;41674;52.290;-1.474;2023-08-06T06:25:09;6;6;
55754;PMS5003;41674;52.290;-1.474;2023-08-06T06:27:39;5;4;
55754;PMS5003;41674;52.290;-1.474;2023-08-06T06:30:09;7;5;
55754;PMS5003;41674;52.290;-1.474;2023-08-06T06:32:38;4;4;
55754;PMS5003;41674;52.290;-1.474;2023-08-06T06:35:08;5;4;
55754;PMS5003;41674;52.290;-1.474;2023-08-06T06:37:38;5;5;
55754;PMS5003;41674;52.290;-1.474;2023-08-06T06:40:07;4;4;
55754;PMS5003;41674;52.290;-1.474;2023-08-06T06:42:36;5;3;
55754;PMS5003;41674;52.290;-1.474;2023-08-06T06:45:07;4;4;
55754;PMS5003;41674;52.290;-1.474;2023-08-06T06:47:36;6;5;
55754;PMS5003;41674;52.290;-1.474;2023-08-06T06:50:05;4;4;
55754;PMS5003;41674;52.290;-1.474;2023-08-06T06:52:35;4;4;
55754;PMS5003;41674;52.290;-1.474;2023-08-06T06:55:05;5;5;
55754;PMS5003;41674;52.290;-1.474;2023-08-06T06:57:34;4;3;
55754;PMS5003;41674;52.290;-1.474;2023-08-06T07:00:04;2;2;
55754;PMS5003;41674;52.290;-1.474;2023-08-06T07:02:33;2;2;
55754;PMS5003;41674;52.290;-1.474;2023-08-06T07:05:02;6;6;
55754;PMS5003;41674;52.290;-1.474;2023-08-06T07:07:32;3;3;
55754;PMS5003;41674;52.290;-1.474;2023-08-06T07:10:01;3;3;
55754;PMS5003;41674;52.290;-1.474;2023-08-06T07:12:31;4;3;
55754;PMS5003;41674;52.290;-1.474;2023-08-06T07:15:00;3;3;
55754;PMS5003;41674;52.290;-1.474;2023-08-06T07:17:30;5;4;
55754;PMS5003;41674;52.290;-1.474;2023-08-06T07:20:00;7;5;
55754;PMS5003;41674;52.290;-1.474;2023-08-06T07:22:29;5;5;
55754;PMS5003;41674;52.290;-1.474;2023-08-06T07:24:59;4;4;
55754;PMS5003;41674;52.290;-1.474;2023-08-06T07:27:28;5;4;
55754;PMS5003;41674;52.290;-1.474;2023-08-06T07:29:58;6;6;
55754;PMS5003;41674;52.290;-1.474;2023-08-06T07:32:28;4;4;
55754;PMS5003;41674;52.290;-1.474;2023-08-06T07:34:57;11;7;
55754;PMS5003;41674;52.290;-1.474;2023-08-06T07:37:27;6;6;
55754;PMS5003;41674;52.290;-1.474;2023-08-06T07:39:57;7;5;
55754;PMS5003;41674;52.290;-1.474;2023-08-06T07:42:26;5;5;
55754;PMS5003;41674;52.290;-1.474;2023-08-06T07:44:56;7;4;
55754;PMS5003;41674;52.290;-1.474;2023-08-06T07:47:25;6;4;
55754;PMS5003;41674;52.290;-1.474;2023-08-06T07:49:55;3;3;
55754;PMS5003;41674;52.290;-1.474;2023-08-06T07:52:26;3;3;
55754;PMS5003;41674;52.290;-1.474;2023-08-06T07:54:54;4;4;
55754;PMS5003;41674;52.290;-1.474;2023-08-06T07:57:24;4;3;
55754;PMS5003;41674;52.290;-1.474;2023-08-06T07:59:53;3;3;
55754;PMS5003;41674;52.290;-1.474;2023-08-06T08:02:23;4;3;
55754;PMS5003;41674;52.290;-1.474;2023-08-06T08:04:52;4;4;
55754;PMS5003;41674;52.290;-1.474;2023-08-06T08:07:22;4;3;
55754;PMS5003;41674;52.290;-1.474;2023-08-06T08:09:52;4;2;
55754;PMS5003;41674;52.290;-1.474;2023-08-06T08:12:21;3;3;
55754;PMS5003;41674;52.290;-1.474;2023-08-06T08:14:51;4;4;
55754;PMS5003;41674;52.290;-1.474;2023-08-06T08:17:20;5;4;
55754;PMS5003;41674;52.290;-1.474;2023-08-06T08:19:50;4;4;
55754;PMS5003;41674;52.290;-1.474;2023-08-06T08:22:19;3;3;
55754;PMS5003;41674;52.290;-1.474;2023-08-06T08:24:49;2;2;
55754;PMS5003;41674;52.290;-1.474;2023-08-06T08:27:18;4;3;
55754;PMS5003;41674;52.290;-1.474;2023-08-06T08:29:48;5;4;
55754;PMS5003;41674;52.290;-1.474;2023-08-06T08:32:18;3;3;
55754;PMS5003;41674;52.290;-1.474;2023-08-06T08:34:47;6;3;
55754;PMS5003;41674;52.290;-1.474;2023-08-06T08:37:17;6;4;
55754;PMS5003;41674;52.290;-1.474;2023-08-06T08:39:46;5;4;
55754;PMS5003;41674;52.290;-1.474;2023-08-06T08:42:16;2;2;
55754;PMS5003;41674;52.290;-1.474;2023-08-06T08:44:45;2;2;
55754;PMS5003;41674;52.290;-1.474;2023-08-06T08:47:15;5;4;
55754;PMS5003;41674;52.290;-1.474;2023-08-06T08:49:45;4;4;
55754;PMS5003;41674;52.290;-1.474;2023-08-06T08:52:14;5;3;
55754;PMS5003;41674;52.290;-1.474;2023-08-06T08:54:44;1;1;
55754;PMS5003;41674;52.290;-1.474;2023-08-06T08:57:13;4;4;
55754;PMS5003;41674;52.290;-1.474;2023-08-06T08:59:43;3;3;
55754;PMS5003;41674;52.290;-1.474;2023-08-06T09:02:13;4;3;
55754;PMS5003;41674;52.290;-1.474;2023-08-06T09:07:12;6;5;
55754;PMS5003;41674;52.290;-1.474;2023-08-06T09:09:41;6;3;
55754;PMS5003;41674;52.290;-1.474;2023-08-06T09:14:40;2;2;
55754;PMS5003;41674;52.290;-1.474;2023-08-06T09:17:10;5;4;
55754;PMS5003;41674;52.290;-1.474;2023-08-06T09:19:41;4;4;
55754;PMS5003;41674;52.290;-1.474;2023-08-06T09:22:09;3;3;
55754;PMS5003;41674;52.290;-1.474;2023-08-06T09:24:38;3;1;
55754;PMS5003;41674;52.290;-1.474;2023-08-06T09:29:39;4;4;
55754;PMS5003;41674;52.290;-1.474;2023-08-06T09:32:07;3;3;
55754;PMS5003;41674;52.290;-1.474;2023-08-06T09:34:39;4;4;
55754;PMS5003;41674;52.290;-1.474;2023-08-06T09:37:07;5;4;
55754;PMS5003;41674;52.290;-1.474;2023-08-06T09:39:37;4;3;
55754;PMS5003;41674;52.290;-1.474;2023-08-06T09:42:06;4;4;
55754;PMS5003;41674;52.290;-1.474;2023-08-06T09:44:35;4;4;
55754;PMS5003;41674;52.290;-1.474;2023-08-06T09:47:05;3;3;
55754;PMS5003;41674;52.290;-1.474;2023-08-06T09:52:04;3;3;
55754;PMS5003;41674;52.290;-1.474;2023-08-06T09:54:33;4;4;
55754;PMS5003;41674;52.290;-1.474;2023-08-06T09:57:03;3;3;
55754;PMS5003;41674;52.290;-1.474;2023-08-06T09:59:32;3;3;
55754;PMS5003;41674;52.290;-1.474;2023-08-06T10:02:02;4;4;
55754;PMS5003;41674;52.290;-1.474;2023-08-06T10:04:31;3;3;
55754;PMS5003;41674;52.290;-1.474;2023-08-06T10:07:01;3;3;
55754;PMS5003;41674;52.290;-1.474;2023-08-06T10:09:31;2;2;
55754;PMS5003;41674;52.290;-1.474;2023-08-06T10:12:00;3;3;
55754;PMS5003;41674;52.290;-1.474;2023-08-06T10:14:31;2;2;
55754;PMS5003;41674;52.290;-1.474;2023-08-06T10:17:00;3;3;
55754;PMS5003;41674;52.290;-1.474;2023-08-06T10:19:29;4;4;
55754;PMS5003;41674;52.290;-1.474;2023-08-06T10:24:28;2;2;
55754;PMS5003;41674;52.290;-1.474;2023-08-06T10:26:58;4;4;
55754;PMS5003;41674;52.290;-1.474;2023-08-06T10:31:58;2;2;
55754;PMS5003;41674;52.290;-1.474;2023-08-06T10:36:56;1;1;
55754;PMS5003;41674;52.290;-1.474;2023-08-06T10:39:26;2;2;
55754;PMS5003;41674;52.290;-1.474;2023-08-06T10:41:55;3;2;
55754;PMS5003;41674;52.290;-1.474;2023-08-06T10:44:24;2;2;
55754;PMS5003;41674;52.290;-1.474;2023-08-06T10:46:54;2;2;
55754;PMS5003;41674;52.290;-1.474;2023-08-06T10:49:24;2;2;
55754;PMS5003;41674;52.290;-1.474;2023-08-06T10:51:53;5;4;
55754;PMS5003;41674;52.290;-1.474;2023-08-06T10:54:23;3;3;
55754;PMS5003;41674;52.290;-1.474;2023-08-06T10:56:52;3;3;
55754;PMS5003;41674;52.290;-1.474;2023-08-06T10:59:22;5;3;
55754;PMS5003;41674;52.290;-1.474;2023-08-06T11:01:51;2;2;
55754;PMS5003;41674;52.290;-1.474;2023-08-06T11:04:21;2;2;
55754;PMS5003;41674;52.290;-1.474;2023-08-06T11:06:52;2;2;
55754;PMS5003;41674;52.290;-1.474;2023-08-06T11:09:20;2;0;
55754;PMS5003;41674;52.290;-1.474;2023-08-06T11:11:50;3;3;
55754;PMS5003;41674;52.290;-1.474;2023-08-06T11:14:19;2;2;
55754;PMS5003;41674;52.290;-1.474;2023-08-06T11:16:49;2;2;
55754;PMS5003;41674;52.290;-1.474;2023-08-06T11:21:48;4;4;
55754;PMS5003;41674;52.290;-1.474;2023-08-06T11:24:17;2;2;
55754;PMS5003;41674;52.290;-1.474;2023-08-06T11:26:47;3;3;
55754;PMS5003;41674;52.290;-1.474;2023-08-06T11:29:16;3;3;
55754;PMS5003;41674;52.290;-1.474;2023-08-06T11:31:46;3;3;
55754;PMS5003;41674;52.290;-1.474;2023-08-06T11:34:16;4;4;
55754;PMS5003;41674;52.290;-1.474;2023-08-06T11:36:45;5;4;
55754;PMS5003;41674;52.290;-1.474;2023-08-06T11:39:15;1;1;
55754;PMS5003;41674;52.290;-1.474;2023-08-06T11:41:44;2;2;
55754;PMS5003;41674;52.290;-1.474;2023-08-06T11:44:14;4;4;
55754;PMS5003;41674;52.290;-1.474;2023-08-06T11:46:49;2;2;
55754;PMS5003;41674;52.290;-1.474;2023-08-06T11:49:13;3;3;
55754;PMS5003;41674;52.290;-1.474;2023-08-06T11:51:42;2;2;
55754;PMS5003;41674;52.290;-1.474;2023-08-06T11:54:12;2;2;
55754;PMS5003;41674;52.290;-1.474;2023-08-06T11:56:42;3;3;
55754;PMS5003;41674;52.290;-1.474;2023-08-06T11:59:11;3;3;
55754;PMS5003;41674;52.290;-1.474;2023-08-06T12:01:41;3;3;
55754;PMS5003;41674;52.290;-1.474;2023-08-06T12:04:10;4;4;
55754;PMS5003;41674;52.290;-1.474;2023-08-06T12:06:41;2;2;
55754;PMS5003;41674;52.290;-1.474;2023-08-06T12:11:39;2;2;
55754;PMS5003;41674;52.290;-1.474;2023-08-06T12:14:09;3;3;
55754;PMS5003;41674;52.290;-1.474;2023-08-06T12:16:38;4;4;
55754;PMS5003;41674;52.290;-1.474;2023-08-06T12:19:07;5;2;
55754;PMS5003;41674;52.290;-1.474;2023-08-06T12:21:37;5;4;
55754;PMS5003;41674;52.290;-1.474;2023-08-06T12:24:06;2;2;
55754;PMS5003;41674;52.290;-1.474;2023-08-06T12:26:36;2;2;
55754;PMS5003;41674;52.290;-1.474;2023-08-06T12:29:05;6;5;
55754;PMS5003;41674;52.290;-1.474;2023-08-06T12:31:35;5;5;
55754;PMS5003;41674;52.290;-1.474;2023-08-06T12:34:05;3;2;
55754;PMS5003;41674;52.290;-1.474;2023-08-06T12:36:34;5;4;
55754;PMS5003;41674;52.290;-1.474;2023-08-06T12:39:04;4;4;
55754;PMS5003;41674;52.290;-1.474;2023-08-06T12:41:33;5;5;
55754;PMS5003;41674;52.290;-1.474;2023-08-06T12:44:07;5;4;
55754;PMS5003;41674;52.290;-1.474;2023-08-06T12:46:32;3;2;
55754;PMS5003;41674;52.290;-1.474;2023-08-06T12:49:01;3;3;
55754;PMS5003;41674;52.290;-1.474;2023-08-06T12:51:32;4;3;
55754;PMS5003;41674;52.290;-1.474;2023-08-06T12:54:01;5;4;
55754;PMS5003;41674;52.290;-1.474;2023-08-06T12:56:30;3;3;
55754;PMS5003;41674;52.290;-1.474;2023-08-06T12:59:00;2;2;
55754;PMS5003;41674;52.290;-1.474;2023-08-06T13:01:29;3;3;
55754;PMS5003;41674;52.290;-1.474;2023-08-06T13:03:59;1;1;
55754;PMS5003;41674;52.290;-1.474;2023-08-06T13:06:28;1;1;
55754;PMS5003;41674;52.290;-1.474;2023-08-06T13:08:58;3;3;
55754;PMS5003;41674;52.290;-1.474;2023-08-06T13:11:27;1;1;
55754;PMS5003;41674;52.290;-1.474;2023-08-06T13:13:58;3;1;
55754;PMS5003;41674;52.290;-1.474;2023-08-06T13:16:26;1;1;
55754;PMS5003;41674;52.290;-1.474;2023-08-06T13:18:56;0;0;
55754;PMS5003;41674;52.290;-1.474;2023-08-06T13:21:32;2;1;
55754;PMS5003;41674;52.290;-1.474;2023-08-06T13:23:55;1;1;
55754;PMS5003;41674;52.290;-1.474;2023-08-06T13:26:24;0;0;
55754;PMS5003;41674;52.290;-1.474;2023-08-06T13:28:54;0;0;
55754;PMS5003;41674;52.290;-1.474;2023-08-06T13:31:23;1;1;
55754;PMS5003;41674;52.290;-1.474;2023-08-06T13:33:53;2;1;
55754;PMS5003;41674;52.290;-1.474;2023-08-06T13:36:22;1;1;
55754;PMS5003;41674;52.290;-1.474;2023-08-06T13:38:52;1;1;
55754;PMS5003;41674;52.290;-1.474;2023-08-06T13:41:22;3;3;
55754;PMS5003;41674;52.290;-1.474;2023-08-06T13:43:51;0;0;
55754;PMS5003;41674;52.290;-1.474;2023-08-06T13:46:21;2;1;
55754;PMS5003;41674;52.290;-1.474;2023-08-06T13:48:50;2;2;
55754;PMS5003;41674;52.290;-1.474;2023-08-06T13:51:20;0;0;
55754;PMS5003;41674;52.290;-1.474;2023-08-06T13:53:49;1;1;
55754;PMS5003;41674;52.290;-1.474;2023-08-06T13:56:19;0;0;
55754;PMS5003;41674;52.290;-1.474;2023-08-06T13:58:48;1;1;
55754;PMS5003;41674;52.290;-1.474;2023-08-06T14:01:18;3;0;
55754;PMS5003;41674;52.290;-1.474;2023-08-06T14:03:47;1;1;
55754;PMS5003;41674;52.290;-1.474;2023-08-06T14:06:17;1;1;
55754;PMS5003;41674;52.290;-1.474;2023-08-06T14:08:46;2;2;
55754;PMS5003;41674;52.290;-1.474;2023-08-06T14:11:16;0;0;
55754;PMS5003;41674;52.290;-1.474;2023-08-06T14:13:45;1;1;
55754;PMS5003;41674;52.290;-1.474;2023-08-06T14:16:15;1;1;
55754;PMS5003;41674;52.290;-1.474;2023-08-06T14:18:44;2;2;
55754;PMS5003;41674;52.290;-1.474;2023-08-06T14:21:14;2;2;
55754;PMS5003;41674;52.290;-1.474;2023-08-06T14:23:43;1;1;
55754;PMS5003;41674;52.290;-1.474;2023-08-06T14:28:43;1;1;
55754;PMS5003;41674;52.290;-1.474;2023-08-06T14:31:12;1;1;
55754;PMS5003;41674;52.290;-1.474;2023-08-06T14:33:42;3;2;
55754;PMS5003;41674;52.290;-1.474;2023-08-06T14:36:11;2;1;
55754;PMS5003;41674;52.290;-1.474;2023-08-06T14:38:41;2;2;
55754;PMS5003;41674;52.290;-1.474;2023-08-06T14:41:10;0;0;
55754;PMS5003;41674;52.290;-1.474;2023-08-06T14:43:40;0;0;
55754;PMS5003;41674;52.290;-1.474;2023-08-06T14:46:09;1;1;
55754;PMS5003;41674;52.290;-1.474;2023-08-06T14:48:39;1;1;
55754;PMS5003;41674;52.290;-1.474;2023-08-06T14:51:08;0;0;
55754;PMS5003;41674;52.290;-1.474;2023-08-06T14:53:38;2;2;
55754;PMS5003;41674;52.290;-1.474;2023-08-06T14:56:08;3;3;
55754;PMS5003;41674;52.290;-1.474;2023-08-06T14:58:37;1;1;
55754;PMS5003;41674;52.290;-1.474;2023-08-06T15:01:06;1;1;
55754;PMS5003;41674;52.290;-1.474;2023-08-06T15:03:36;2;2;
55754;PMS5003;41674;52.290;-1.474;2023-08-06T15:06:05;1;1;
55754;PMS5003;41674;52.290;-1.474;2023-08-06T15:08:35;1;0;
55754;PMS5003;41674;52.290;-1.474;2023-08-06T15:11:04;2;2;
55754;PMS5003;41674;52.290;-1.474;2023-08-06T15:13:34;0;0;
55754;PMS5003;41674;52.290;-1.474;2023-08-06T15:16:04;1;1;
55754;PMS5003;41674;52.290;-1.474;2023-08-06T15:18:33;1;1;
55754;PMS5003;41674;52.290;-1.474;2023-08-06T15:21:02;1;1;
55754;PMS5003;41674;52.290;-1.474;2023-08-06T15:23:32;1;1;
55754;PMS5003;41674;52.290;-1.474;2023-08-06T15:28:31;2;2;
55754;PMS5003;41674;52.290;-1.474;2023-08-06T15:31:00;2;2;
55754;PMS5003;41674;52.290;-1.474;2023-08-06T15:33:30;1;1;
55754;PMS5003;41674;52.290;-1.474;2023-08-06T15:36:00;2;1;
55754;PMS5003;41674;52.290;-1.474;2023-08-06T15:38:29;1;1;
55754;PMS5003;41674;52.290;-1.474;2023-08-06T15:40:58;2;2;
55754;PMS5003;41674;52.290;-1.474;2023-08-06T15:43:28;3;3;
55754;PMS5003;41674;52.290;-1.474;2023-08-06T15:45:57;2;2;
55754;PMS5003;41674;52.290;-1.474;2023-08-06T15:48:27;2;2;
55754;PMS5003;41674;52.290;-1.474;2023-08-06T15:50:56;1;1;
55754;PMS5003;41674;52.290;-1.474;2023-08-06T15:53:26;2;2;
55754;PMS5003;41674;52.290;-1.474;2023-08-06T15:55:55;2;2;
55754;PMS5003;41674;52.290;-1.474;2023-08-06T15:58:25;2;2;
55754;PMS5003;41674;52.290;-1.474;2023-08-06T16:00:54;2;2;
55754;PMS5003;41674;52.290;-1.474;2023-08-06T16:03:24;1;1;
55754;PMS5003;41674;52.290;-1.474;2023-08-06T16:05:54;2;2;
55754;PMS5003;41674;52.290;-1.474;2023-08-06T16:08:23;2;2;
55754;PMS5003;41674;52.290;-1.474;2023-08-06T16:10:52;3;3;
55754;PMS5003;41674;52.290;-1.474;2023-08-06T16:13:22;4;3;
55754;PMS5003;41674;52.290;-1.474;2023-08-06T16:15:52;2;2;
55754;PMS5003;41674;52.290;-1.474;2023-08-06T16:18:21;2;2;
55754;PMS5003;41674;52.290;-1.474;2023-08-06T16:20:51;2;2;
55754;PMS5003;41674;52.290;-1.474;2023-08-06T16:23:20;2;2;
55754;PMS5003;41674;52.290;-1.474;2023-08-06T16:25:50;0;0;
55754;PMS5003;41674;52.290;-1.474;2023-08-06T16:28:19;3;1;
55754;PMS5003;41674;52.290;-1.474;2023-08-06T16:30:49;2;2;
55754;PMS5003;41674;52.290;-1.474;2023-08-06T16:33:18;2;2;
55754;PMS5003;41674;52.290;-1.474;2023-08-06T16:35:48;3;2;
55754;PMS5003;41674;52.290;-1.474;2023-08-06T16:38:17;2;2;
55754;PMS5003;41674;52.290;-1.474;2023-08-06T16:40:51;1;1;
55754;PMS5003;41674;52.290;-1.474;2023-08-06T16:43:16;3;2;
55754;PMS5003;41674;52.290;-1.474;2023-08-06T16:45:46;2;2;
55754;PMS5003;41674;52.290;-1.474;2023-08-06T16:48:15;3;3;
55754;PMS5003;41674;52.290;-1.474;2023-08-06T16:50:45;2;1;
55754;PMS5003;41674;52.290;-1.474;2023-08-06T16:53:14;2;2;
55754;PMS5003;41674;52.290;-1.474;2023-08-06T16:55:44;1;1;
55754;PMS5003;41674;52.290;-1.474;2023-08-06T16:58:13;2;2;
55754;PMS5003;41674;52.290;-1.474;2023-08-06T17:00:43;1;1;
55754;PMS5003;41674;52.290;-1.474;2023-08-06T17:03:13;1;1;
55754;PMS5003;41674;52.290;-1.474;2023-08-06T17:05:42;1;1;
55754;PMS5003;41674;52.290;-1.474;2023-08-06T17:08:11;1;1;
55754;PMS5003;41674;52.290;-1.474;2023-08-06T17:10:41;2;2;
55754;PMS5003;41674;52.290;-1.474;2023-08-06T17:13:10;3;1;
55754;PMS5003;41674;52.290;-1.474;2023-08-06T17:15:41;2;2;
55754;PMS5003;41674;52.290;-1.474;2023-08-06T17:18:09;3;2;